createdAt,value
2019-03-06T00:01:43.598Z,91.49
2019-03-06T00:04:10.352Z,92.19
2019-03-06T00:06:37.094Z,89.56
2019-03-06T00:09:05.011Z,92.59
2019-03-06T00:11:31.741Z,93.39
2019-03-06T00:13:58.489Z,94.44
2019-03-06T00:16:25.205Z,95.42
2019-03-06T00:18:51.985Z,95.52
2019-03-06T00:21:18.673Z,95.75
2019-03-06T00:23:45.410Z,96.75
2019-03-06T00:26:12.126Z,96.13
2019-03-06T00:28:38.987Z,97.49
2019-03-06T00:31:05.826Z,97.11
2019-03-06T00:33:32.561Z,99.12
2019-03-06T00:35:59.905Z,98.79
2019-03-06T00:38:26.650Z,98.83
2019-03-06T00:41:03.411Z,98.25
2019-03-06T00:43:30.158Z,98.03
2019-03-06T00:45:56.878Z,96.43
2019-03-06T00:48:23.622Z,96.87
2019-03-06T00:50:50.354Z,95.53
2019-03-06T00:53:17.162Z,96.88
2019-03-06T00:55:43.900Z,94.80
2019-03-06T00:58:10.794Z,95.92
2019-03-06T01:00:37.550Z,95.76
2019-03-06T01:03:04.285Z,94.05
2019-03-06T01:05:31.018Z,94.70
2019-03-06T01:07:57.764Z,96.40
2019-03-06T01:10:24.498Z,93.75
2019-03-06T01:12:51.262Z,95.39
2019-03-06T01:15:18.021Z,93.14
2019-03-06T01:17:44.921Z,95.27
2019-03-06T01:20:11.651Z,95.25
2019-03-06T01:22:38.382Z,95.93
2019-03-06T01:25:05.418Z,93.71
2019-03-06T01:27:32.154Z,95.68
2019-03-06T01:29:58.909Z,93.44
2019-03-06T01:32:25.633Z,93.54
2019-03-06T01:35:12.854Z,95.43
2019-03-06T01:38:01.130Z,93.07
2019-03-06T01:40:36.378Z,95.15
2019-03-06T01:43:10.871Z,95.37
2019-03-06T01:45:37.586Z,93.91
2019-03-06T01:48:04.337Z,95.70
2019-03-06T01:50:31.069Z,95.95
2019-03-06T01:52:57.815Z,96.41
2019-03-06T01:55:24.600Z,96.93
2019-03-06T01:57:51.334Z,96.65
2019-03-06T02:00:18.106Z,93.65
2019-03-06T02:02:44.836Z,91.90
2019-03-06T02:05:11.722Z,94.54
2019-03-06T02:07:38.454Z,95.74
2019-03-06T02:10:05.885Z,96.01
2019-03-06T02:12:32.634Z,96.44
2019-03-06T02:14:59.377Z,96.18
2019-03-06T02:17:26.108Z,97.68
2019-03-06T02:19:52.846Z,97.29
2019-03-06T02:22:19.579Z,97.47
2019-03-06T02:24:46.329Z,98.50
2019-03-06T02:27:13.058Z,99.26
2019-03-06T02:29:39.799Z,98.44
2019-03-06T02:32:06.517Z,98.70
2019-03-06T02:34:33.258Z,98.61
2019-03-06T02:36:59.982Z,98.64
2019-03-06T02:39:26.731Z,98.62
2019-03-06T02:41:53.459Z,98.08
2019-03-06T02:44:20.210Z,94.73
2019-03-06T02:46:46.945Z,94.83
2019-03-06T02:49:13.689Z,93.31
2019-03-06T02:51:40.420Z,95.69
2019-03-06T02:54:07.166Z,94.19
2019-03-06T02:56:33.900Z,93.35
2019-03-06T02:59:08.991Z,93.50
2019-03-06T03:01:48.286Z,96.47
2019-03-06T03:04:20.487Z,98.82
2019-03-06T03:06:51.598Z,97.24
2019-03-06T03:09:18.824Z,98.19
2019-03-06T03:11:45.541Z,96.44
2019-03-06T03:14:12.287Z,96.92
2019-03-06T03:16:39.043Z,97.52
2019-03-06T03:19:05.766Z,98.21
2019-03-06T03:21:32.506Z,98.92
2019-03-06T03:23:59.234Z,98.70
2019-03-06T03:26:25.995Z,97.72
2019-03-06T03:28:52.724Z,98.37
2019-03-06T03:31:19.472Z,97.88
2019-03-06T03:33:46.215Z,98.90
2019-03-06T03:36:12.970Z,97.07
2019-03-06T03:38:39.687Z,98.18
2019-03-06T03:41:06.433Z,98.82
2019-03-06T03:43:33.163Z,98.62
2019-03-06T03:45:59.904Z,98.32
2019-03-06T03:48:26.746Z,98.49
2019-03-06T03:50:53.488Z,98.47
2019-03-06T03:53:20.221Z,98.04
2019-03-06T03:55:46.975Z,97.98
2019-03-06T03:58:13.695Z,98.64
2019-03-06T04:00:40.611Z,98.76
2019-03-06T04:03:07.333Z,96.47
2019-03-06T04:05:34.102Z,98.09
2019-03-06T04:08:00.834Z,96.92
2019-03-06T04:10:28.797Z,97.90
2019-03-06T04:12:55.522Z,98.71
2019-03-06T04:15:22.266Z,98.28
2019-03-06T04:17:49.003Z,98.58
2019-03-06T04:20:15.886Z,95.22
2019-03-06T04:22:42.463Z,95.45
2019-03-06T04:25:09.243Z,94.16
2019-03-06T04:27:35.969Z,94.90
2019-03-06T04:30:02.880Z,96.00
2019-03-06T04:32:29.606Z,98.87
2019-03-06T04:34:56.346Z,99.04
2019-03-06T04:37:23.099Z,97.52
2019-03-06T04:39:49.821Z,97.53
2019-03-06T04:42:16.591Z,97.81
2019-03-06T04:44:43.338Z,98.15
2019-03-06T04:47:10.172Z,97.37
2019-03-06T04:49:36.890Z,97.70
2019-03-06T04:52:03.631Z,98.47
2019-03-06T04:54:30.386Z,98.18
2019-03-06T04:56:57.110Z,98.23
2019-03-06T04:59:23.954Z,98.35
2019-03-06T05:01:50.676Z,98.37
2019-03-06T05:04:17.386Z,97.68
2019-03-06T05:06:44.146Z,98.25
2019-03-06T05:09:10.884Z,98.21
2019-03-06T05:11:37.605Z,98.29
2019-03-06T05:14:04.335Z,97.93
2019-03-06T05:16:47.192Z,97.56
2019-03-06T05:19:13.918Z,98.19
2019-03-06T05:21:40.646Z,98.10
2019-03-06T05:24:07.386Z,98.13
2019-03-06T05:26:34.157Z,98.71
2019-03-06T05:29:01.150Z,98.91
2019-03-06T05:31:27.885Z,99.44
2019-03-06T05:33:54.646Z,99.52
2019-03-06T05:36:30.939Z,97.19
2019-03-06T05:39:04.225Z,98.99
2019-03-06T05:41:30.934Z,99.90
2019-03-06T05:43:57.670Z,99.51
2019-03-06T05:46:24.402Z,98.98
2019-03-06T05:48:51.142Z,98.48
2019-03-06T05:51:17.946Z,95.97
2019-03-06T05:53:44.693Z,94.71
2019-03-06T05:56:11.474Z,94.00
2019-03-06T05:58:38.195Z,92.61
2019-03-06T06:01:04.937Z,93.03
2019-03-06T06:03:31.673Z,95.01
2019-03-06T06:05:58.494Z,95.98
2019-03-06T06:08:25.211Z,95.86
2019-03-06T06:10:51.941Z,95.61
2019-03-06T06:13:18.658Z,96.22
2019-03-06T06:15:45.382Z,97.44
2019-03-06T06:18:12.105Z,98.87
2019-03-06T06:20:38.856Z,97.92
2019-03-06T06:23:10.658Z,97.31
2019-03-06T06:25:37.414Z,97.32
2019-03-06T06:28:04.149Z,95.76
2019-03-06T06:30:30.890Z,95.15
2019-03-06T06:32:57.594Z,96.20
2019-03-06T06:35:26.309Z,96.97
2019-03-06T06:37:51.044Z,98.01
2019-03-06T06:40:17.910Z,96.51
2019-03-06T06:42:44.629Z,97.56
2019-03-06T06:45:11.398Z,94.46
2019-03-06T06:48:03.406Z,95.42
2019-03-06T06:50:30.138Z,96.15
2019-03-06T06:53:16.066Z,95.84
2019-03-06T06:56:19.611Z,94.81
2019-03-06T06:58:56.606Z,95.28
2019-03-06T07:01:53.153Z,94.87
2019-03-06T07:05:22.582Z,95.59
2019-03-06T07:08:08.918Z,94.95
2019-03-06T07:10:38.660Z,94.74
2019-03-06T07:13:27.789Z,94.76
2019-03-06T07:16:00.349Z,93.91
2019-03-06T07:18:34.766Z,94.24
2019-03-06T07:21:07.870Z,93.95
2019-03-06T07:23:55.087Z,93.14
2019-03-06T07:26:32.070Z,92.94
2019-03-06T07:29:04.013Z,93.12
2019-03-06T07:31:50.371Z,92.89
2019-03-06T07:34:36.707Z,94.50
2019-03-06T07:37:09.115Z,94.74
2019-03-06T07:39:43.413Z,92.66
2019-03-06T07:42:23.287Z,94.86
2019-03-06T07:45:41.147Z,94.23
2019-03-06T07:48:27.486Z,93.94
2019-03-06T07:51:03.698Z,94.34
2019-03-06T07:54:02.950Z,93.68
2019-03-06T07:56:35.263Z,92.82
2019-03-06T07:59:02.701Z,91.87
2019-03-06T08:01:31.885Z,91.10
2019-03-06T08:04:06.741Z,89.99
2019-03-06T08:06:33.466Z,89.84
2019-03-06T08:09:00.210Z,88.70
2019-03-06T08:11:33.170Z,87.71
2019-03-06T08:14:05.457Z,87.48
2019-03-06T08:16:55.065Z,86.14
2019-03-06T08:19:36.713Z,85.36
2019-03-06T08:22:16.959Z,85.60
2019-03-06T08:24:55.378Z,85.23
2019-03-06T08:27:22.114Z,82.45
2019-03-06T08:29:48.935Z,84.22
2019-03-06T08:32:21.450Z,81.63
2019-03-06T08:34:48.405Z,82.81
2019-03-06T08:37:15.125Z,82.57
2019-03-06T08:39:41.930Z,81.26
2019-03-06T08:42:08.665Z,81.91
2019-03-06T08:44:35.426Z,81.94
2019-03-06T08:47:13.546Z,80.83
2019-03-06T08:49:46.977Z,79.54
2019-03-06T08:52:34.178Z,79.15
2019-03-06T08:55:23.406Z,79.66
2019-03-06T08:57:55.798Z,80.54
2019-03-06T09:00:45.158Z,79.51
2019-03-06T09:03:17.785Z,79.20
2019-03-06T09:05:54.305Z,79.51
2019-03-06T09:08:31.842Z,79.76
2019-03-06T09:11:07.183Z,76.93
2019-03-06T09:13:58.585Z,79.33
2019-03-06T09:16:31.063Z,79.61
2019-03-06T09:19:01.385Z,80.14
2019-03-06T09:21:35.405Z,79.86
2019-03-06T09:24:24.769Z,78.74
2019-03-06T09:26:59.800Z,78.23
2019-03-06T09:29:32.598Z,78.99
2019-03-06T09:32:10.783Z,76.94
2019-03-06T09:34:44.095Z,77.08
2019-03-06T09:37:29.033Z,76.35
2019-03-06T09:40:06.116Z,73.97
2019-03-06T09:42:40.850Z,72.88
2019-03-06T09:45:13.242Z,70.96
2019-03-06T09:47:47.338Z,69.62
2019-03-06T09:50:19.898Z,68.34
2019-03-06T09:53:09.018Z,67.65
2019-03-06T09:56:00.446Z,66.34
2019-03-06T09:58:33.990Z,66.07
2019-03-06T10:01:14.419Z,63.65
2019-03-06T10:04:05.850Z,63.45
2019-03-06T10:06:45.752Z,65.68
2019-03-06T10:09:30.566Z,66.31
2019-03-06T10:12:06.939Z,65.77
2019-03-06T10:14:53.298Z,66.73
2019-03-06T10:17:26.333Z,67.49
2019-03-06T10:19:56.014Z,68.65
2019-03-06T10:22:22.743Z,68.55
2019-03-06T10:24:49.512Z,68.21
2019-03-06T10:27:16.212Z,67.72
2019-03-06T10:29:42.945Z,69.00
2019-03-06T10:32:09.668Z,66.46
2019-03-06T10:34:36.404Z,65.74
2019-03-06T10:39:29.861Z,64.89
2019-03-06T10:41:56.570Z,63.36
2019-03-06T10:44:29.502Z,62.24
2019-03-06T10:46:50.038Z,64.76
2019-03-06T10:49:16.794Z,60.36
2019-03-06T10:51:43.521Z,61.46
2019-03-06T10:54:10.238Z,61.30
2019-03-06T10:56:36.981Z,62.05
2019-03-06T10:59:04.598Z,60.27
2019-03-06T11:01:31.406Z,59.58
2019-03-06T11:04:04.002Z,59.20
2019-03-06T11:06:30.742Z,57.75
2019-03-06T11:08:57.498Z,57.97
2019-03-06T11:11:24.246Z,56.56
2019-03-06T11:13:50.971Z,57.94
2019-03-06T11:16:18.012Z,59.71
2019-03-06T11:18:44.455Z,59.04
2019-03-06T11:21:11.207Z,58.43
2019-03-06T11:23:37.988Z,58.08
2019-03-06T11:26:06.204Z,55.95
2019-03-06T11:28:32.933Z,56.01
2019-03-06T11:30:59.674Z,56.25
2019-03-06T11:33:26.395Z,56.46
2019-03-06T11:35:53.247Z,58.28
2019-03-06T11:38:19.985Z,59.20
2019-03-06T11:40:46.737Z,59.82
2019-03-06T11:43:13.462Z,59.70
2019-03-06T11:45:40.218Z,60.81
2019-03-06T11:48:06.949Z,60.64
2019-03-06T11:50:40.568Z,58.54
2019-03-06T11:53:00.430Z,58.11
2019-03-06T11:55:27.170Z,57.20
2019-03-06T11:57:53.900Z,57.73
2019-03-06T12:00:31.086Z,59.35
2019-03-06T12:02:57.770Z,65.59
2019-03-06T12:05:24.523Z,69.11
2019-03-06T12:07:51.243Z,69.41
2019-03-06T12:10:18.139Z,68.78
2019-03-06T12:12:44.911Z,69.29
2019-03-06T12:15:12.686Z,70.69
2019-03-06T12:17:39.428Z,71.86
2019-03-06T12:22:32.940Z,67.08
2019-03-06T12:23:44.884Z,68.69
2019-03-06T12:24:59.678Z,66.31
2019-03-06T12:27:26.418Z,65.42
2019-03-06T12:29:53.161Z,64.70
2019-03-06T12:32:19.906Z,63.86
2019-03-06T12:34:46.655Z,62.72
2019-03-06T12:37:13.425Z,62.55
2019-03-06T12:39:40.146Z,61.91
2019-03-06T12:42:13.984Z,62.21
2019-03-06T12:44:33.745Z,61.67
2019-03-06T12:47:00.506Z,60.22
2019-03-06T12:49:28.098Z,59.67
2019-03-06T12:51:54.943Z,59.56
2019-03-06T12:54:21.579Z,58.14
2019-03-06T12:56:48.323Z,59.27
2019-03-06T12:59:16.394Z,59.26
2019-03-06T13:01:43.138Z,60.24
2019-03-06T13:04:09.904Z,62.09
2019-03-06T13:06:36.641Z,61.49
2019-03-06T13:09:09.898Z,60.80
2019-03-06T13:11:36.634Z,60.17
2019-03-06T13:14:03.364Z,60.61
2019-03-06T13:16:30.118Z,61.63
2019-03-06T13:18:56.841Z,60.39
2019-03-06T13:21:23.671Z,63.15
2019-03-06T13:23:50.402Z,61.78
2019-03-06T13:26:17.144Z,60.27
2019-03-06T13:28:43.869Z,59.93
2019-03-06T13:31:10.606Z,59.95
2019-03-06T13:33:45.994Z,58.85
2019-03-06T13:36:12.746Z,58.54
2019-03-06T13:38:39.473Z,57.79
2019-03-06T13:41:06.222Z,58.94
2019-03-06T13:43:32.998Z,58.05
2019-03-06T13:45:59.725Z,56.62
2019-03-06T13:48:26.470Z,55.19
2019-03-06T13:50:53.185Z,55.37
2019-03-06T13:53:20.536Z,54.20
2019-03-06T13:55:46.653Z,53.56
2019-03-06T13:58:13.410Z,55.22
2019-03-06T14:00:40.125Z,54.33
2019-03-06T14:03:06.866Z,54.64
2019-03-06T14:05:33.658Z,54.77
2019-03-06T14:08:00.419Z,55.05
2019-03-06T14:10:27.161Z,53.41
2019-03-06T14:12:53.922Z,50.42
2019-03-06T14:15:20.652Z,51.04
2019-03-06T14:17:47.402Z,48.21
2019-03-06T14:20:14.247Z,47.31
2019-03-06T14:22:41.007Z,48.69
2019-03-06T14:25:07.774Z,48.62
2019-03-06T14:27:34.543Z,49.19
2019-03-06T14:30:01.281Z,49.83
2019-03-06T14:32:28.042Z,49.59
2019-03-06T14:34:54.786Z,49.54
2019-03-06T14:37:21.658Z,48.73
2019-03-06T14:39:48.380Z,51.02
2019-03-06T14:42:15.183Z,50.20
2019-03-06T14:44:41.917Z,48.72
2019-03-06T14:47:08.682Z,47.06
2019-03-06T14:49:35.422Z,48.33
2019-03-06T14:52:07.184Z,47.73
2019-03-06T14:54:28.978Z,48.48
2019-03-06T14:56:55.715Z,47.32
2019-03-06T14:59:22.578Z,48.44
2019-03-06T15:01:49.310Z,48.52
2019-03-06T15:04:16.063Z,49.87
2019-03-06T15:06:42.814Z,48.58
2019-03-06T15:09:20.623Z,49.93
2019-03-06T15:11:47.362Z,48.47
2019-03-06T15:14:14.122Z,49.80
2019-03-06T15:16:40.907Z,49.59
2019-03-06T15:19:07.662Z,50.33
2019-03-06T15:21:34.401Z,49.88
2019-03-06T15:24:01.151Z,51.46
2019-03-06T15:26:28.118Z,51.45
2019-03-06T15:28:54.865Z,50.99
2019-03-06T15:31:21.646Z,50.13
2019-03-06T15:33:48.398Z,51.58
2019-03-06T15:36:15.242Z,51.50
2019-03-06T15:38:42.107Z,51.31
2019-03-06T15:41:08.835Z,52.30
2019-03-06T15:43:35.586Z,51.27
2019-03-06T15:46:02.398Z,51.03
2019-03-06T15:48:29.161Z,52.16
2019-03-06T15:50:55.895Z,53.00
2019-03-06T15:53:25.519Z,52.60
2019-03-06T15:55:49.371Z,53.46
2019-03-06T15:58:16.214Z,52.94
2019-03-06T16:00:46.561Z,52.99
2019-03-06T16:03:09.842Z,52.49
2019-03-06T16:05:36.626Z,51.18
2019-03-06T16:08:03.902Z,52.10
2019-03-06T16:10:30.723Z,51.90
2019-03-06T16:12:57.510Z,51.98
2019-03-06T16:15:25.281Z,52.18
2019-03-06T16:17:52.021Z,52.41
2019-03-06T16:20:18.764Z,52.89
2019-03-06T16:22:45.512Z,52.97
2019-03-06T16:25:12.257Z,54.83
2019-03-06T16:27:39.000Z,54.80
2019-03-06T16:30:06.455Z,54.81
2019-03-06T16:32:33.221Z,55.55
2019-03-06T16:34:59.955Z,56.14
2019-03-06T16:37:26.703Z,60.15
2019-03-06T16:39:53.447Z,61.65
2019-03-06T16:42:20.210Z,67.57
2019-03-06T16:44:46.943Z,69.40
2019-03-06T16:47:13.705Z,70.65
2019-03-06T16:49:40.434Z,71.33
2019-03-06T16:52:07.362Z,69.90
2019-03-06T16:54:34.095Z,71.74
2019-03-06T16:57:00.828Z,72.23
2019-03-06T16:59:27.579Z,72.37
2019-03-06T17:01:54.318Z,73.16
2019-03-06T17:04:21.055Z,72.36
2019-03-06T17:06:47.802Z,72.69
2019-03-06T17:09:14.586Z,74.32
2019-03-06T17:11:41.355Z,75.25
2019-03-06T17:14:08.184Z,74.53
2019-03-06T17:16:34.937Z,73.25
2019-03-06T17:19:01.753Z,72.02
2019-03-06T17:21:28.489Z,70.81
2019-03-06T17:23:55.278Z,72.46
2019-03-06T17:26:22.002Z,73.10
2019-03-06T17:28:48.758Z,74.01
2019-03-06T17:31:16.429Z,74.15
2019-03-06T17:33:42.249Z,73.71
2019-03-06T17:36:09.067Z,75.97
2019-03-06T17:38:35.830Z,74.59
2019-03-06T17:41:02.619Z,75.71
2019-03-06T17:43:29.469Z,75.93
2019-03-06T17:45:56.245Z,77.41
2019-03-06T17:48:22.985Z,77.26
2019-03-06T17:50:49.818Z,76.04
2019-03-06T17:53:16.591Z,76.33
2019-03-06T17:55:43.435Z,75.97
2019-03-06T17:58:10.158Z,75.71
2019-03-06T18:00:44.328Z,74.88
2019-03-06T18:03:12.382Z,75.53
2019-03-06T18:05:39.125Z,74.92
2019-03-06T18:08:05.851Z,73.37
2019-03-06T18:10:32.578Z,72.87
2019-03-06T18:12:59.301Z,69.48
2019-03-06T18:15:26.042Z,67.97
2019-03-06T18:17:52.862Z,67.82
2019-03-06T18:20:19.609Z,66.86
2019-03-06T18:22:46.334Z,67.63
2019-03-06T18:25:14.205Z,69.01
2019-03-06T18:27:40.930Z,69.39
2019-03-06T18:30:09.559Z,69.65
2019-03-06T18:32:36.282Z,72.00
2019-03-06T18:35:03.428Z,72.82
2019-03-06T18:37:30.149Z,71.27
2019-03-06T18:39:56.890Z,70.32
2019-03-06T18:42:23.614Z,69.98
2019-03-06T18:44:50.402Z,70.73
2019-03-06T18:47:17.134Z,73.83
2019-03-06T18:49:43.882Z,77.00
2019-03-06T18:52:10.630Z,76.76
2019-03-06T18:54:37.378Z,77.42
2019-03-06T18:57:04.097Z,79.47
2019-03-06T18:59:31.802Z,78.56
2019-03-06T19:01:58.559Z,76.90
2019-03-06T19:04:25.293Z,74.56
2019-03-06T19:06:52.006Z,75.59
2019-03-06T19:09:19.871Z,75.71
2019-03-06T19:11:45.552Z,73.76
2019-03-06T19:14:12.288Z,75.16
2019-03-06T19:16:39.047Z,74.59
2019-03-06T19:19:05.758Z,74.15
2019-03-06T19:21:32.521Z,71.91
2019-03-06T19:23:59.233Z,72.63
2019-03-06T19:26:26.038Z,73.16
2019-03-06T19:28:52.954Z,72.55
2019-03-06T19:31:19.726Z,69.56
2019-03-06T19:33:46.446Z,71.70
2019-03-06T19:36:13.186Z,71.65
2019-03-06T19:38:39.910Z,70.93
2019-03-06T19:41:06.658Z,73.32
2019-03-06T19:43:33.372Z,74.13
2019-03-06T19:46:00.114Z,76.53
2019-03-06T19:48:26.974Z,77.88
2019-03-06T19:50:53.806Z,78.89
2019-03-06T19:53:20.538Z,77.56
2019-03-06T19:55:47.282Z,77.57
2019-03-06T19:58:14.044Z,76.15
2019-03-06T20:00:40.858Z,77.98
2019-03-06T20:03:07.610Z,78.66
2019-03-06T20:05:35.791Z,79.31
2019-03-06T20:08:02.538Z,77.93
2019-03-06T20:10:29.322Z,76.42
2019-03-06T20:12:56.045Z,76.90
2019-03-06T20:15:22.777Z,77.22
2019-03-06T20:17:49.507Z,77.53
2019-03-06T20:20:16.498Z,78.02
2019-03-06T20:22:43.218Z,77.87
2019-03-06T20:25:10.002Z,78.69
2019-03-06T20:27:36.758Z,79.23
2019-03-06T20:30:04.079Z,78.39
2019-03-06T20:32:30.838Z,80.31
2019-03-06T20:34:57.530Z,82.73
2019-03-06T20:37:24.250Z,82.19
2019-03-06T20:39:51.171Z,79.13
2019-03-06T20:42:19.198Z,80.22
2019-03-06T20:44:45.942Z,81.04
2019-03-06T20:47:12.765Z,80.69
2019-03-06T20:49:39.474Z,81.16
2019-03-06T20:52:06.310Z,79.30
2019-03-06T20:54:33.026Z,81.91
2019-03-06T20:56:59.926Z,81.74
2019-03-06T20:59:26.643Z,81.66
2019-03-06T21:01:53.390Z,80.41
2019-03-06T21:04:20.299Z,81.79
2019-03-06T21:06:46.876Z,82.01
2019-03-06T21:09:13.590Z,78.88
2019-03-06T21:11:40.326Z,78.84
2019-03-06T21:14:07.045Z,79.51
2019-03-06T21:16:33.786Z,80.53
2019-03-06T21:19:00.501Z,81.02
2019-03-06T21:21:27.238Z,82.54
2019-03-06T21:23:53.976Z,83.04
2019-03-06T21:26:20.699Z,82.19
2019-03-06T21:28:47.417Z,81.55
2019-03-06T21:31:14.153Z,81.42
2019-03-06T21:33:40.877Z,81.25
2019-03-06T21:36:07.617Z,83.89
2019-03-06T21:38:34.330Z,84.19
2019-03-06T21:41:01.064Z,86.37
2019-03-06T21:43:27.782Z,87.69
2019-03-06T21:45:54.537Z,88.61
2019-03-06T21:48:21.249Z,86.61
2019-03-06T21:50:47.982Z,85.82
2019-03-06T21:53:14.705Z,85.86
2019-03-06T21:55:41.487Z,85.33
2019-03-06T21:58:08.202Z,83.14
2019-03-06T22:00:34.928Z,83.48
2019-03-06T22:03:02.058Z,83.55
2019-03-06T22:05:28.760Z,83.82
2019-03-06T22:07:55.496Z,83.50
2019-03-06T22:10:22.210Z,81.11
2019-03-06T22:12:48.966Z,80.37
2019-03-06T22:15:15.729Z,84.05
2019-03-06T22:17:42.450Z,85.63
2019-03-06T22:20:09.563Z,83.67
2019-03-06T22:22:36.297Z,82.40
2019-03-06T22:25:03.294Z,83.80
2019-03-06T22:27:30.034Z,84.11
2019-03-06T22:29:56.754Z,82.26
2019-03-06T22:32:23.490Z,83.87
2019-03-06T22:34:52.038Z,84.80
2019-03-06T22:37:16.946Z,87.33
2019-03-06T22:39:43.686Z,86.38
2019-03-06T22:42:10.414Z,87.28
2019-03-06T22:44:37.189Z,86.37
2019-03-06T22:47:03.989Z,86.05
2019-03-06T22:49:30.697Z,86.94
2019-03-06T22:51:57.444Z,87.17
2019-03-06T22:54:24.159Z,86.99
2019-03-06T22:56:50.895Z,87.31
2019-03-06T22:59:17.624Z,88.30
2019-03-06T23:01:44.380Z,87.31
2019-03-06T23:04:11.094Z,87.66
2019-03-06T23:06:37.822Z,87.24
2019-03-06T23:09:06.061Z,87.98
2019-03-06T23:11:32.841Z,87.86
2019-03-06T23:13:59.581Z,88.17
2019-03-06T23:16:26.361Z,89.06
2019-03-06T23:18:53.061Z,90.21
2019-03-06T23:21:19.772Z,89.68
2019-03-06T23:23:47.194Z,88.76
2019-03-06T23:26:13.919Z,89.51
2019-03-06T23:28:40.678Z,86.53
2019-03-06T23:31:07.398Z,88.56
2019-03-06T23:33:34.283Z,85.67
2019-03-06T23:36:01.006Z,87.69
2019-03-06T23:38:27.741Z,88.96
2019-03-06T23:40:54.481Z,89.33
2019-03-06T23:43:21.228Z,86.15
2019-03-06T23:45:48.077Z,85.22
2019-03-06T23:48:15.018Z,87.76
2019-03-06T23:50:41.886Z,87.78
2019-03-06T23:53:10.350Z,88.08
2019-03-06T23:55:37.067Z,88.49
2019-03-06T23:58:03.825Z,88.58
